createdAt,value
2022-12-05T00:01:37.464Z,19.50
2022-12-05T00:04:10.359Z,19.83
2022-12-05T00:06:38.965Z,21.33
2022-12-05T00:09:08.215Z,21.33
2022-12-05T00:11:38.757Z,20.90
2022-12-05T00:14:09.451Z,22.58
2022-12-05T00:16:39.530Z,22.75
2022-12-05T00:19:08.872Z,22.63
2022-12-05T00:21:37.776Z,23.58
2022-12-05T00:24:07.993Z,22.33
2022-12-05T00:26:35.808Z,21.30
2022-12-05T00:29:03.162Z,22.33
2022-12-05T00:31:30.391Z,21.20
2022-12-05T00:34:02.202Z,20.85
2022-12-05T00:36:32.252Z,20.58
2022-12-05T00:39:01.243Z,21.05
2022-12-05T00:41:30.361Z,22.85
2022-12-05T00:44:00.768Z,21.27
2022-12-05T00:46:30.042Z,20.65
2022-12-05T00:48:59.743Z,21.70
2022-12-05T00:51:30.540Z,21.77
2022-12-05T00:54:03.185Z,21.92
2022-12-05T00:56:32.972Z,20.57
2022-12-05T00:59:02.058Z,22.13
2022-12-05T01:01:41.329Z,20.83
2022-12-05T01:04:12.681Z,20.02
2022-12-05T01:06:40.985Z,21.13
2022-12-05T01:09:09.309Z,21.23
2022-12-05T01:11:41.205Z,21.92
2022-12-05T01:14:10.762Z,20.58
2022-12-05T01:16:40.269Z,20.88
2022-12-05T01:19:12.952Z,21.90
2022-12-05T01:21:40.551Z,21.07
2022-12-05T01:24:08.279Z,22.15
2022-12-05T01:26:35.680Z,23.05
2022-12-05T01:29:03.853Z,22.80
2022-12-05T01:31:34.324Z,22.55
2022-12-05T01:34:05.037Z,23.27
2022-12-05T01:36:32.571Z,22.88
2022-12-05T01:39:01.875Z,23.45
2022-12-05T01:41:40.258Z,22.38
2022-12-05T01:44:14.641Z,22.70
2022-12-05T01:46:51.534Z,22.55
2022-12-05T01:49:25.308Z,22.17
2022-12-05T01:52:07.215Z,23.08
2022-12-05T01:54:37.198Z,22.25
2022-12-05T01:57:08.390Z,21.58
2022-12-05T01:59:42.674Z,21.13
2022-12-05T02:02:10.916Z,21.67
2022-12-05T02:05:00.122Z,21.00
2022-12-05T02:07:27.738Z,20.58
2022-12-05T02:09:55.036Z,21.75
2022-12-05T02:12:24.238Z,19.58
2022-12-05T02:15:06.201Z,21.50
2022-12-05T02:17:37.013Z,19.10
2022-12-05T02:20:22.753Z,21.00
2022-12-05T02:23:03.042Z,20.17
2022-12-05T02:25:58.365Z,19.55
2022-12-05T02:28:44.072Z,20.58
2022-12-05T02:31:18.142Z,20.55
2022-12-05T02:33:50.715Z,19.40
2022-12-05T02:36:26.124Z,20.60
2022-12-05T02:39:31.322Z,20.25
2022-12-05T02:42:09.564Z,20.90
2022-12-05T02:45:07.581Z,19.80
2022-12-05T02:47:45.929Z,20.45
2022-12-05T02:50:18.322Z,20.63
2022-12-05T02:52:49.187Z,20.13
2022-12-05T02:55:18.784Z,19.08
2022-12-05T02:57:51.970Z,19.33
2022-12-05T03:00:19.511Z,20.10
2022-12-05T03:02:49.075Z,19.95
2022-12-05T03:05:41.748Z,18.90
2022-12-05T03:08:14.357Z,19.90
2022-12-05T03:10:45.715Z,21.17
2022-12-05T03:13:21.710Z,23.50
2022-12-05T03:15:56.202Z,21.98
2022-12-05T03:18:42.451Z,21.90
2022-12-05T03:21:36.595Z,18.98
2022-12-05T03:24:11.960Z,20.48
2022-12-05T03:27:10.044Z,18.30
2022-12-05T03:30:06.446Z,19.48
2022-12-05T03:32:40.320Z,19.67
2022-12-05T03:36:06.159Z,19.25
2022-12-05T03:39:02.280Z,18.17
2022-12-05T03:41:35.757Z,18.25
2022-12-05T03:46:57.244Z,16.58
2022-12-05T03:49:36.264Z,18.02
2022-12-05T03:52:25.790Z,18.30
2022-12-05T03:55:01.755Z,18.42
2022-12-05T03:57:34.900Z,17.00
2022-12-05T04:00:10.509Z,16.30
2022-12-05T04:02:47.257Z,17.50
2022-12-05T04:05:21.803Z,17.20
2022-12-05T04:08:08.527Z,17.17
2022-12-05T04:10:49.150Z,16.45
2022-12-05T04:13:23.974Z,16.25
2022-12-05T04:16:18.635Z,17.30
2022-12-05T04:18:58.241Z,15.48
2022-12-05T04:21:40.999Z,17.35
2022-12-05T04:24:37.163Z,16.42
2022-12-05T04:27:52.347Z,16.10
2022-12-05T04:30:26.856Z,16.60
2022-12-05T04:33:13.196Z,17.67
2022-12-05T04:36:02.019Z,16.42
2022-12-05T04:38:42.355Z,17.90
2022-12-05T04:41:17.977Z,17.17
2022-12-05T04:43:47.830Z,17.65
2022-12-05T04:46:19.478Z,17.17
2022-12-05T04:48:53.462Z,17.02
2022-12-05T04:51:25.325Z,17.95
2022-12-05T04:54:01.055Z,16.83
2022-12-05T04:56:31.861Z,17.45
2022-12-05T04:59:01.205Z,18.27
2022-12-05T05:01:38.856Z,17.70
2022-12-05T05:04:23.101Z,17.85
2022-12-05T05:09:17.544Z,16.67
2022-12-05T05:11:44.922Z,16.75
2022-12-05T05:14:15.093Z,17.40
2022-12-05T05:16:43.731Z,16.58
2022-12-05T05:19:12.444Z,16.52
2022-12-05T05:21:42.464Z,15.55
2022-12-05T05:24:12.044Z,16.95
2022-12-05T05:26:42.121Z,15.52
2022-12-05T05:29:12.110Z,15.13
2022-12-05T05:31:41.335Z,16.10
2022-12-05T05:34:10.120Z,15.25
2022-12-05T05:36:38.863Z,14.80
2022-12-05T05:39:11.928Z,16.27
2022-12-05T05:41:39.511Z,16.00
2022-12-05T05:44:07.587Z,15.35
2022-12-05T05:46:36.231Z,15.82
2022-12-05T05:49:04.504Z,16.13
2022-12-05T05:51:33.405Z,16.65
2022-12-05T05:54:01.331Z,15.88
2022-12-05T05:56:30.463Z,16.05
2022-12-05T05:59:04.120Z,15.52
2022-12-05T06:01:32.602Z,16.60
2022-12-05T06:04:00.097Z,15.43
2022-12-05T06:06:27.964Z,15.38
2022-12-05T06:08:55.514Z,15.32
2022-12-05T06:11:27.154Z,16.58
2022-12-05T06:14:01.459Z,16.08
2022-12-05T06:16:30.311Z,15.93
2022-12-05T06:18:58.228Z,15.60
2022-12-05T06:21:26.708Z,17.15
2022-12-05T06:23:55.018Z,16.20
2022-12-05T06:26:23.452Z,16.50
2022-12-05T06:28:51.126Z,15.80
2022-12-05T06:31:21.516Z,15.80
2022-12-05T06:33:49.645Z,15.95
2022-12-05T06:36:20.559Z,15.40
2022-12-05T06:38:48.639Z,15.07
2022-12-05T06:41:18.539Z,15.25
2022-12-05T06:43:46.735Z,15.45
2022-12-05T06:46:15.732Z,14.25
2022-12-05T06:48:43.653Z,14.45
2022-12-05T06:51:16.304Z,14.93
2022-12-05T06:53:44.337Z,14.20
2022-12-05T06:56:17.335Z,13.95
2022-12-05T06:58:46.848Z,14.52
2022-12-05T07:01:41.890Z,14.95
2022-12-05T07:04:18.068Z,13.55
2022-12-05T07:06:50.810Z,14.10
2022-12-05T07:09:48.673Z,14.18
2022-12-05T07:12:18.513Z,13.45
2022-12-05T07:14:49.027Z,14.57
2022-12-05T07:17:18.859Z,14.70
2022-12-05T07:19:49.133Z,14.13
2022-12-05T07:22:17.775Z,14.40
2022-12-05T07:24:45.971Z,13.55
2022-12-05T07:27:14.943Z,14.57
2022-12-05T07:29:42.310Z,14.40
2022-12-05T07:32:10.113Z,15.13
2022-12-05T07:34:39.291Z,14.57
2022-12-05T07:37:07.319Z,14.25
2022-12-05T07:39:34.664Z,14.85
2022-12-05T07:42:02.037Z,14.35
2022-12-05T07:44:29.494Z,13.48
2022-12-05T07:46:56.763Z,13.90
2022-12-05T07:49:24.836Z,13.30
2022-12-05T07:51:52.286Z,15.02
2022-12-05T07:54:19.626Z,14.35
2022-12-05T07:56:48.099Z,14.50
2022-12-05T07:59:16.041Z,14.48
2022-12-05T08:01:43.383Z,14.55
2022-12-05T08:04:15.048Z,13.98
2022-12-05T08:06:43.677Z,14.52
2022-12-05T08:09:11.351Z,14.55
2022-12-05T08:11:38.628Z,14.57
2022-12-05T08:14:07.435Z,13.18
2022-12-05T08:16:34.898Z,14.10
2022-12-05T08:19:08.079Z,14.43
2022-12-05T08:21:36.066Z,13.95
2022-12-05T08:24:08.478Z,13.95
2022-12-05T08:26:37.001Z,13.65
2022-12-05T08:29:10.262Z,13.45
2022-12-05T08:31:42.677Z,13.88
2022-12-05T08:34:12.828Z,13.35
2022-12-05T08:36:41.287Z,14.43
2022-12-05T08:39:12.513Z,15.60
2022-12-05T08:41:40.213Z,14.02
2022-12-05T08:44:09.752Z,15.10
2022-12-05T08:46:39.352Z,13.35
2022-12-05T08:49:07.075Z,15.57
2022-12-05T08:51:34.881Z,14.40
2022-12-05T08:54:06.369Z,15.15
2022-12-05T08:56:34.194Z,13.45
2022-12-05T08:59:05.752Z,14.48
2022-12-05T09:01:34.960Z,14.55
2022-12-05T09:04:05.097Z,15.05
2022-12-05T09:06:34.954Z,14.07
2022-12-05T09:09:06.736Z,14.40
2022-12-05T09:11:38.029Z,13.93
2022-12-05T09:14:05.726Z,14.68
2022-12-05T09:16:39.025Z,15.35
2022-12-05T09:19:13.036Z,16.10
2022-12-05T09:21:40.323Z,15.75
2022-12-05T09:24:07.709Z,16.55
2022-12-05T09:26:35.280Z,17.20
2022-12-05T09:29:03.842Z,17.08
2022-12-05T09:31:31.398Z,16.80
2022-12-05T09:33:58.844Z,16.65
2022-12-05T09:36:29.426Z,16.80
2022-12-05T09:39:01.400Z,17.58
2022-12-05T09:42:02.909Z,17.45
2022-12-05T09:44:42.510Z,19.38
2022-12-05T09:47:30.777Z,19.73
2022-12-05T09:50:12.209Z,19.70
2022-12-05T09:52:48.600Z,19.02
2022-12-05T09:55:19.422Z,18.83
2022-12-05T09:58:00.683Z,23.80
2022-12-05T10:00:30.094Z,23.63
2022-12-05T10:03:11.596Z,23.63
2022-12-05T10:06:08.798Z,23.88
2022-12-05T10:09:13.103Z,24.25
2022-12-05T10:14:31.483Z,22.38
2022-12-05T10:17:08.011Z,26.35
2022-12-05T10:19:42.448Z,25.45
2022-12-05T10:22:21.387Z,26.08
2022-12-05T10:24:57.329Z,24.48
2022-12-05T10:27:41.482Z,25.98
2022-12-05T10:32:56.668Z,23.50
2022-12-05T10:35:36.513Z,24.15
2022-12-05T10:38:24.197Z,21.88
2022-12-05T10:40:54.915Z,23.42
2022-12-05T10:43:31.530Z,25.60
2022-12-05T10:46:00.470Z,24.60
2022-12-05T10:48:29.416Z,22.65
2022-12-05T10:50:58.757Z,22.70
2022-12-05T10:53:38.007Z,21.88
2022-12-05T10:56:40.061Z,21.40
2022-12-05T10:59:14.731Z,20.20
2022-12-05T11:01:57.604Z,20.48
2022-12-05T11:04:32.492Z,20.42
2022-12-05T11:09:33.195Z,17.92
2022-12-05T11:12:06.705Z,17.65
2022-12-05T11:17:04.844Z,16.17
2022-12-05T11:19:35.843Z,16.25
2022-12-05T11:22:05.220Z,15.90
2022-12-05T11:24:38.718Z,15.77
2022-12-05T11:27:18.274Z,15.63
2022-12-05T11:30:03.638Z,14.02
2022-12-05T11:32:34.964Z,13.90
2022-12-05T11:35:14.425Z,12.93
2022-12-05T11:38:05.362Z,12.60
2022-12-05T11:40:42.313Z,11.57
2022-12-05T11:43:24.779Z,11.52
2022-12-05T11:46:26.633Z,11.20
2022-12-05T11:49:13.354Z,10.68
2022-12-05T11:51:47.841Z,11.75
2022-12-05T11:55:10.239Z,12.20
2022-12-05T11:57:52.580Z,11.60
2022-12-05T12:00:44.226Z,10.80
2022-12-05T12:03:48.220Z,10.75
2022-12-05T12:06:30.180Z,10.40
2022-12-05T12:09:08.334Z,9.88
2022-12-05T12:11:49.951Z,10.15
2022-12-05T12:14:45.372Z,8.55
2022-12-05T12:17:38.342Z,7.88
2022-12-05T12:20:29.530Z,8.15
2022-12-05T12:23:12.807Z,7.95
2022-12-05T12:25:55.426Z,8.23
2022-12-05T12:28:29.724Z,8.18
2022-12-05T12:31:13.501Z,7.90
2022-12-05T12:34:01.349Z,7.75
2022-12-05T12:36:49.421Z,6.55
2022-12-05T12:39:28.614Z,6.07
2022-12-05T12:42:14.712Z,6.60
2022-12-05T12:45:21.403Z,5.90
2022-12-05T12:48:07.474Z,6.15
2022-12-05T12:50:43.443Z,6.45
2022-12-05T12:53:35.925Z,7.13
2022-12-05T12:56:52.099Z,7.45
2022-12-05T12:59:55.877Z,8.32
2022-12-05T13:02:34.943Z,7.90
2022-12-05T13:05:09.905Z,7.28
2022-12-05T13:07:45.009Z,6.95
2022-12-05T13:10:25.175Z,6.90
2022-12-05T13:12:54.066Z,6.68
2022-12-05T13:15:41.555Z,6.57
2022-12-05T13:18:16.802Z,6.05
2022-12-05T13:20:46.744Z,4.55
2022-12-05T13:23:18.950Z,5.35
2022-12-05T13:25:48.056Z,4.28
2022-12-05T13:28:42.413Z,5.00
2022-12-05T13:31:11.237Z,4.50
2022-12-05T13:33:47.794Z,4.00
2022-12-05T13:36:43.209Z,3.72
2022-12-05T13:39:41.014Z,3.13
2022-12-05T13:42:25.439Z,3.67
2022-12-05T13:45:20.573Z,3.33
2022-12-05T13:47:56.710Z,3.25
2022-12-05T13:50:34.046Z,3.28
2022-12-05T13:53:27.952Z,3.70
2022-12-05T13:56:04.513Z,3.58
2022-12-05T13:58:32.511Z,3.40
2022-12-05T14:01:28.121Z,3.50
2022-12-05T14:03:57.523Z,3.45
2022-12-05T14:06:40.055Z,3.05
2022-12-05T14:09:19.522Z,3.10
2022-12-05T14:12:12.511Z,3.50
2022-12-05T14:14:58.422Z,2.83
2022-12-05T14:17:45.024Z,3.25
2022-12-05T14:20:47.136Z,3.05
2022-12-05T14:23:39.478Z,2.72
2022-12-05T14:26:16.429Z,2.80
2022-12-05T14:28:52.677Z,2.80
2022-12-05T14:31:22.805Z,2.83
2022-12-05T14:34:25.474Z,2.80
2022-12-05T14:37:04.455Z,2.60
2022-12-05T14:39:41.312Z,2.50
2022-12-05T14:42:43.570Z,2.63
2022-12-05T14:45:31.787Z,2.58
2022-12-05T14:48:01.988Z,2.60
2022-12-05T14:50:43.312Z,2.63
2022-12-05T14:53:43.302Z,2.17
2022-12-05T14:56:19.164Z,2.58
2022-12-05T14:58:58.808Z,2.40
2022-12-05T15:01:31.938Z,2.30
2022-12-05T15:04:39.209Z,2.45
2022-12-05T15:07:34.459Z,2.60
2022-12-05T15:10:05.653Z,2.67
2022-12-05T15:13:04.208Z,2.13
2022-12-05T15:15:38.169Z,2.25
2022-12-05T15:18:28.374Z,2.40
2022-12-05T15:20:58.762Z,2.20
2022-12-05T15:23:49.105Z,2.40
2022-12-05T15:29:28.398Z,2.28
2022-12-05T15:32:11.190Z,2.20
2022-12-05T15:34:50.919Z,1.90
2022-12-05T15:37:29.527Z,2.55
2022-12-05T15:39:59.457Z,2.45
2022-12-05T15:42:41.796Z,2.25
2022-12-05T15:45:15.279Z,2.30
2022-12-05T15:50:22.554Z,2.40
2022-12-05T15:52:59.744Z,2.45
2022-12-05T15:55:43.799Z,2.38
2022-12-05T15:58:32.352Z,2.80
2022-12-05T16:01:15.466Z,2.50
2022-12-05T16:03:54.261Z,3.20
2022-12-05T16:06:28.167Z,3.13
2022-12-05T16:08:57.102Z,4.18
2022-12-05T16:11:24.647Z,3.08
2022-12-05T16:13:57.030Z,3.60
2022-12-05T16:16:28.474Z,3.10
2022-12-05T16:18:58.932Z,3.88
2022-12-05T16:21:38.451Z,3.72
2022-12-05T16:24:16.514Z,4.05
2022-12-05T16:26:44.990Z,3.72
2022-12-05T16:29:30.239Z,4.70
2022-12-05T16:32:22.081Z,4.30
2022-12-05T16:34:49.956Z,3.50
2022-12-05T16:37:29.190Z,3.92
2022-12-05T16:39:57.818Z,4.03
2022-12-05T16:42:30.430Z,3.80
2022-12-05T16:45:02.652Z,3.70
2022-12-05T16:47:42.666Z,3.72
2022-12-05T16:50:31.867Z,4.20
2022-12-05T16:53:15.314Z,4.28
2022-12-05T16:55:44.784Z,4.15
2022-12-05T16:58:26.785Z,4.85
2022-12-05T17:01:00.646Z,4.47
2022-12-05T17:03:36.479Z,4.50
2022-12-05T17:06:04.972Z,4.03
2022-12-05T17:08:32.267Z,4.13
2022-12-05T17:11:02.081Z,4.57
2022-12-05T17:13:30.957Z,4.72
2022-12-05T17:15:58.361Z,4.90
2022-12-05T17:18:31.261Z,4.93
2022-12-05T17:23:33.042Z,5.80
2022-12-05T17:26:00.509Z,7.75
2022-12-05T17:28:28.175Z,8.75
2022-12-05T17:30:55.509Z,7.90
2022-12-05T17:33:23.186Z,6.95
2022-12-05T17:35:52.308Z,6.40
2022-12-05T17:38:19.762Z,6.20
2022-12-05T17:40:50.534Z,6.03
2022-12-05T17:43:24.467Z,5.38
2022-12-05T17:45:54.892Z,5.78
2022-12-05T17:48:22.504Z,6.70
2022-12-05T17:50:50.593Z,7.20
2022-12-05T17:53:21.147Z,5.50
2022-12-05T17:55:49.598Z,5.13
2022-12-05T17:58:24.465Z,4.82
2022-12-05T18:00:52.233Z,5.45
2022-12-05T18:03:19.999Z,4.80
2022-12-05T18:05:48.290Z,4.80
2022-12-05T18:08:19.879Z,5.22
2022-12-05T18:10:49.240Z,4.45
2022-12-05T18:13:17.712Z,4.85
2022-12-05T18:15:48.796Z,4.88
2022-12-05T18:18:18.588Z,5.22
2022-12-05T18:20:45.998Z,6.13
2022-12-05T18:23:14.591Z,5.82
2022-12-05T18:25:42.254Z,5.78
2022-12-05T18:28:09.482Z,6.45
2022-12-05T18:30:37.251Z,5.88
2022-12-05T18:33:05.236Z,6.40
2022-12-05T18:35:41.884Z,5.60
2022-12-05T18:38:11.729Z,10.88
2022-12-05T18:40:39.107Z,8.55
2022-12-05T18:43:07.022Z,8.30
2022-12-05T18:45:34.544Z,6.03
2022-12-05T18:48:23.460Z,5.47
2022-12-05T18:50:50.806Z,6.00
2022-12-05T18:53:18.498Z,5.13
2022-12-05T18:56:05.131Z,4.57
2022-12-05T18:58:34.418Z,4.55
2022-12-05T19:01:07.546Z,4.57
2022-12-05T19:03:37.148Z,4.13
2022-12-05T19:06:26.824Z,4.00
2022-12-05T19:08:56.123Z,4.50
2022-12-05T19:11:26.503Z,4.38
2022-12-05T19:14:04.039Z,4.25
2022-12-05T19:16:34.015Z,4.35
2022-12-05T19:19:03.419Z,4.50
2022-12-05T19:21:34.901Z,4.25
2022-12-05T19:24:04.475Z,4.63
2022-12-05T19:26:32.144Z,4.60
2022-12-05T19:28:59.490Z,4.80
2022-12-05T19:31:29.970Z,4.63
2022-12-05T19:34:00.803Z,4.95
2022-12-05T19:36:36.037Z,5.55
2022-12-05T19:39:12.134Z,5.75
2022-12-05T19:41:39.721Z,5.35
2022-12-05T19:44:07.257Z,6.90
2022-12-05T19:46:35.481Z,6.72
2022-12-05T19:49:06.300Z,7.82
2022-12-05T19:51:34.435Z,7.28
2022-12-05T19:54:03.701Z,7.65
2022-12-05T19:56:37.598Z,7.57
2022-12-05T19:59:06.957Z,7.40
2022-12-05T20:01:39.028Z,7.10
2022-12-05T20:04:09.856Z,7.60
2022-12-05T20:06:43.175Z,7.13
2022-12-05T20:09:12.117Z,6.50
2022-12-05T20:11:42.248Z,6.40
2022-12-05T20:14:11.807Z,6.38
2022-12-05T20:16:42.997Z,5.93
2022-12-05T20:19:11.160Z,8.30
2022-12-05T20:21:43.913Z,11.65
2022-12-05T20:24:11.864Z,11.48
2022-12-05T20:26:43.464Z,10.00
2022-12-05T20:29:11.817Z,9.70
2022-12-05T20:31:41.953Z,8.57
2022-12-05T20:34:14.079Z,7.53
2022-12-05T20:36:42.474Z,6.95
2022-12-05T20:39:19.458Z,6.28
2022-12-05T20:41:47.067Z,8.48
2022-12-05T20:44:15.868Z,7.75
2022-12-05T20:46:47.548Z,9.38
2022-12-05T20:49:19.074Z,8.80
2022-12-05T20:51:50.839Z,7.68
2022-12-05T20:54:18.688Z,7.55
2022-12-05T20:56:46.116Z,6.97
2022-12-05T20:59:14.047Z,7.07
2022-12-05T21:01:41.996Z,6.50
2022-12-05T21:04:29.231Z,7.03
2022-12-05T21:06:57.140Z,6.90
2022-12-05T21:09:29.245Z,7.00
2022-12-05T21:11:58.589Z,7.07
2022-12-05T21:14:26.211Z,6.53
2022-12-05T21:16:54.315Z,6.50
2022-12-05T21:19:22.525Z,6.13
2022-12-05T21:21:49.983Z,6.78
2022-12-05T21:24:17.332Z,6.13
2022-12-05T21:26:44.739Z,6.28
2022-12-05T21:29:12.291Z,6.80
2022-12-05T21:31:42.587Z,6.88
2022-12-05T21:34:16.077Z,8.55
2022-12-05T21:36:44.602Z,8.63
2022-12-05T21:39:12.659Z,8.88
2022-12-05T21:41:43.048Z,8.60
2022-12-05T21:44:11.080Z,7.82
2022-12-05T21:46:38.479Z,7.18
2022-12-05T21:49:05.812Z,5.85
2022-12-05T21:51:33.549Z,5.57
2022-12-05T21:54:00.696Z,5.90
2022-12-05T21:56:29.045Z,6.40
2022-12-05T21:58:57.375Z,6.32
2022-12-05T22:01:27.197Z,6.95
2022-12-05T22:03:59.755Z,6.20
2022-12-05T22:06:27.939Z,6.32
2022-12-05T22:08:56.130Z,5.93
2022-12-05T22:11:24.859Z,5.97
2022-12-05T22:13:52.688Z,5.97
2022-12-05T22:16:20.994Z,5.68
2022-12-05T22:18:48.715Z,7.40
2022-12-05T22:21:19.329Z,7.95
2022-12-05T22:23:47.900Z,6.72
2022-12-05T22:26:23.622Z,6.57
2022-12-05T22:28:52.562Z,6.30
2022-12-05T22:31:21.022Z,6.40
2022-12-05T22:33:48.721Z,6.35
2022-12-05T22:36:17.866Z,5.90
2022-12-05T22:38:48.333Z,6.20
2022-12-05T22:41:27.040Z,5.93
2022-12-05T22:43:59.810Z,5.32
2022-12-05T22:46:29.076Z,5.50
2022-12-05T22:48:56.819Z,5.80
2022-12-05T22:51:24.557Z,5.20
2022-12-05T22:53:53.391Z,4.82
2022-12-05T22:56:22.663Z,5.20
2022-12-05T22:58:54.028Z,5.78
2022-12-05T23:01:27.796Z,5.03
2022-12-05T23:04:07.014Z,4.90
2022-12-05T23:06:37.064Z,5.82
2022-12-05T23:09:07.750Z,5.90
2022-12-05T23:11:35.390Z,6.30
2022-12-05T23:14:02.969Z,5.80
2022-12-05T23:16:32.910Z,6.20
2022-12-05T23:19:03.347Z,5.35
2022-12-05T23:21:39.478Z,4.97
2022-12-05T23:24:10.061Z,6.15
2022-12-05T23:26:43.913Z,6.47
2022-12-05T23:29:15.038Z,5.68
2022-12-05T23:31:43.173Z,5.70
2022-12-05T23:34:11.600Z,5.85
2022-12-05T23:36:39.664Z,5.15
2022-12-05T23:39:08.196Z,5.97
2022-12-05T23:41:36.149Z,6.18
2022-12-05T23:44:03.764Z,5.82
2022-12-05T23:46:31.913Z,5.70
2022-12-05T23:49:00.087Z,5.85
2022-12-05T23:51:29.873Z,6.05
2022-12-05T23:54:00.787Z,6.10
2022-12-05T23:56:31.606Z,5.93
2022-12-05T23:58:59.372Z,5.85
